Weather at Flugplatz Biel-Kappelen

Public forecast

Using degrees Celsius for public forecast. Weather courtesy of forecast.io.

Closest aviation weather report (METAR) to Flugplatz Biel-Kappelen

Closest report is Grenchen Airport, 7.6 nm (14.1 km) NE. Retrieved 2020/09/18 15:20 UTC (22 minutes ago):

LSZG 181520Z 08008KT CAVOK 25/17 Q1019 NOSIG

Closest aviation forecast (TAF) to Flugplatz Biel-Kappelen

Closest forecast is Payerne Air Base, 21.3 nm (39.5 km) SW. Retrieved 2020/09/18 10:00 UTC (6 hours ago):

TAF LSMP 180925Z 1810/1916 06003KT CAVOK BECMG 1819/1822 4000 BR NSC PROB30 1900/1906 BKN004 BECMG 1907/1910 CAVOK